• Join FlightAware (Why Join?)
  • Login
  • US Flag 
06:20PM EDT


 

Airport Tracker/Info


-or-


 

Live Flight TrackerFlight Track Log ✈ EJA951 ✈ 20-Mar-2014 ✈ KBCT - KMIA

Flight Track Log - Related Links

Times and Time Zones

All times are in EDT time to prevent confusion due to time zone crossing. See the EJA951 flight status page for this flight to view local times or setup timezone preferences in your user account.

Time Position Orientation Groundspeed Altitude Reporting Facility
EDT Latitude Longitude Course Direction KTS MPH feet Rate Location/Type
12:58PM 26.4172 -80.0603 196° South 225 259 2,100  Level Miami Center
12:59PM 26.4469 -80.0286 44° Northeast 240 276 3,800 1,860 Climbing Miami Center
01:00PM 26.4758 -79.9575 66° East 271 312 5,200 1,620 Climbing Miami Center
01:01PM 26.4217 -79.9514 174° South 267 307 7,000 600 Climbing Miami Center
01:03PM 26.2783 -80.0078 199° South 271 312 7,000  Level Miami Center
01:04PM 25.7954 -80.2901 196° South  Level Estimated
01:04PM 26.1983 -80.0311 195° South 268 308 7,000  Level Miami Center
01:05PM 26.1228 -80.0525 194° South 267 307 7,000  Level Miami Center
01:06PM 26.0492 -80.0736 194° South 264 304 7,000  Level Miami Center
01:07PM 25.9756 -80.0922 193° South 272 313 7,000  Level Miami Center
01:08PM 25.9225 -80.1394 219° Southwest 257 296 7,000  Level Miami Center
01:09PM 25.9144 -80.2178 263° West 256 295 7,000 -240 Level Miami Center
01:10PM 25.9103 -80.2983 267° West 257 296 6,600 -1,200 Descending Miami Center
01:11PM 25.9019 -80.3883 264° West 256 295 4,500 -1,800 Descending Miami Center
01:12PM 25.8961 -80.4619 265° West 259 298 3,000 -780 Descending Miami Center
01:13PM 25.8514 -80.4906 210° Southwest 209 241 3,000 -360 Level Miami Center
01:14PM 25.7994 -80.4797 169° South 172 198 2,300 -780 Descending Miami Center
01:15PM 25.7967 -80.4267 93° East 179 206 1,500 -540 Descending Miami Center
01:16PM 25.7958 -80.3714 91° East 169 194 1,300 -600 Descending Miami Center
01:17PM 25.8011 -80.3231 83° East 142 163 400 -900 Descending Miami Center
01:19PM 25.7954 -80.2901 108° East  Level Estimated
01:26PM 25.7954 -80.2901 283° West  Level Estimated